Terminal Aerodrome Forecast
Issued by NWS Cleveland, OH

Home | Current Version | Previous Version | Graphics & Text | Print | Product List | Glossary Off
Versions: 1 2 3 4 5 6 7 8 9 10 11 12

583
FTUS41 KCLE 122340
TAFTOL
TAF
KTOL 122340Z 1300/1324 29018G28KT P6SM SCT050
      TEMPO 1300/1302 4SM -SHSN OVC035
     FM130600 30015G22KT P6SM BKN035
     FM131000 30012KT P6SM SCT035
     FM131700 30012G20KT P6SM BKN035=

USA.gov is the U.S. government's official web portal to all federal, state and local government web resources and services.